sensor_id;sensor_type;location;lat;lon;timestamp;P1;durP1;ratioP1;P2;durP2;ratioP2
13733;SDS011;43298;52.560;13.508;2023-07-20T00:01:46;2.42;;;1.75;;
13733;SDS011;43298;52.560;13.508;2023-07-20T00:04:13;1.77;;;1.55;;
13733;SDS011;43298;52.560;13.508;2023-07-20T00:06:39;2.42;;;1.83;;
13733;SDS011;43298;52.560;13.508;2023-07-20T00:09:07;3.30;;;2.03;;
13733;SDS011;43298;52.560;13.508;2023-07-20T00:11:35;2.55;;;1.77;;
13733;SDS011;43298;52.560;13.508;2023-07-20T00:14:03;2.40;;;2.00;;
13733;SDS011;43298;52.560;13.508;2023-07-20T00:16:31;2.03;;;1.58;;
13733;SDS011;43298;52.560;13.508;2023-07-20T00:18:56;2.50;;;2.03;;
13733;SDS011;43298;52.560;13.508;2023-07-20T00:21:23;1.70;;;1.60;;
13733;SDS011;43298;52.560;13.508;2023-07-20T00:23:50;2.20;;;1.92;;
13733;SDS011;43298;52.560;13.508;2023-07-20T00:26:16;2.15;;;1.80;;
13733;SDS011;43298;52.560;13.508;2023-07-20T00:28:42;2.83;;;2.20;;
13733;SDS011;43298;52.560;13.508;2023-07-20T00:31:09;2.83;;;2.15;;
13733;SDS011;43298;52.560;13.508;2023-07-20T00:33:35;2.05;;;1.83;;
13733;SDS011;43298;52.560;13.508;2023-07-20T00:36:01;2.35;;;1.77;;
13733;SDS011;43298;52.560;13.508;2023-07-20T00:38:27;2.20;;;1.67;;
13733;SDS011;43298;52.560;13.508;2023-07-20T00:40:53;3.97;;;2.15;;
13733;SDS011;43298;52.560;13.508;2023-07-20T00:43:19;2.13;;;1.92;;
13733;SDS011;43298;52.560;13.508;2023-07-20T00:45:45;2.28;;;2.03;;
13733;SDS011;43298;52.560;13.508;2023-07-20T00:48:11;1.73;;;1.63;;
13733;SDS011;43298;52.560;13.508;2023-07-20T00:50:39;1.60;;;1.30;;
13733;SDS011;43298;52.560;13.508;2023-07-20T00:53:06;2.50;;;2.28;;
13733;SDS011;43298;52.560;13.508;2023-07-20T00:55:33;2.30;;;2.00;;
13733;SDS011;43298;52.560;13.508;2023-07-20T00:57:59;2.33;;;1.50;;
13733;SDS011;43298;52.560;13.508;2023-07-20T01:00:26;2.88;;;2.08;;
13733;SDS011;43298;52.560;13.508;2023-07-20T01:02:52;2.72;;;1.70;;
13733;SDS011;43298;52.560;13.508;2023-07-20T01:05:19;1.52;;;1.42;;
13733;SDS011;43298;52.560;13.508;2023-07-20T01:07:50;2.03;;;1.85;;
13733;SDS011;43298;52.560;13.508;2023-07-20T01:10:31;3.03;;;2.00;;
13733;SDS011;43298;52.560;13.508;2023-07-20T01:13:09;4.05;;;2.17;;
13733;SDS011;43298;52.560;13.508;2023-07-20T01:15:37;2.42;;;2.05;;
13733;SDS011;43298;52.560;13.508;2023-07-20T01:18:03;2.38;;;1.70;;
13733;SDS011;43298;52.560;13.508;2023-07-20T01:20:30;2.30;;;2.10;;
13733;SDS011;43298;52.560;13.508;2023-07-20T01:26:35;2.58;;;2.20;;
13733;SDS011;43298;52.560;13.508;2023-07-20T01:29:21;2.13;;;1.60;;
13733;SDS011;43298;52.560;13.508;2023-07-20T01:32:01;2.15;;;1.95;;
13733;SDS011;43298;52.560;13.508;2023-07-20T01:34:29;1.63;;;1.52;;
13733;SDS011;43298;52.560;13.508;2023-07-20T01:36:57;2.05;;;1.73;;
13733;SDS011;43298;52.560;13.508;2023-07-20T01:39:26;3.58;;;2.10;;
13733;SDS011;43298;52.560;13.508;2023-07-20T01:41:53;2.78;;;2.08;;
13733;SDS011;43298;52.560;13.508;2023-07-20T01:44:22;3.90;;;1.98;;
13733;SDS011;43298;52.560;13.508;2023-07-20T01:46:49;1.65;;;1.55;;
13733;SDS011;43298;52.560;13.508;2023-07-20T01:49:18;2.67;;;2.47;;
13733;SDS011;43298;52.560;13.508;2023-07-20T01:51:47;2.28;;;1.98;;
13733;SDS011;43298;52.560;13.508;2023-07-20T01:54:16;2.75;;;2.20;;
13733;SDS011;43298;52.560;13.508;2023-07-20T01:56:46;3.67;;;2.67;;
13733;SDS011;43298;52.560;13.508;2023-07-20T01:59:14;3.00;;;2.70;;
13733;SDS011;43298;52.560;13.508;2023-07-20T02:01:40;3.58;;;2.63;;
13733;SDS011;43298;52.560;13.508;2023-07-20T02:04:06;3.83;;;3.25;;
13733;SDS011;43298;52.560;13.508;2023-07-20T02:06:32;3.20;;;2.58;;
13733;SDS011;43298;52.560;13.508;2023-07-20T02:08:58;3.42;;;3.15;;
13733;SDS011;43298;52.560;13.508;2023-07-20T02:11:24;3.20;;;2.88;;
13733;SDS011;43298;52.560;13.508;2023-07-20T02:13:50;2.72;;;2.47;;
13733;SDS011;43298;52.560;13.508;2023-07-20T02:16:17;3.72;;;3.00;;
13733;SDS011;43298;52.560;13.508;2023-07-20T02:18:43;2.97;;;2.67;;
13733;SDS011;43298;52.560;13.508;2023-07-20T02:21:09;3.85;;;3.13;;
13733;SDS011;43298;52.560;13.508;2023-07-20T02:23:35;3.05;;;2.60;;
13733;SDS011;43298;52.560;13.508;2023-07-20T02:26:01;2.90;;;2.45;;
13733;SDS011;43298;52.560;13.508;2023-07-20T02:28:27;2.72;;;2.53;;
13733;SDS011;43298;52.560;13.508;2023-07-20T02:30:54;3.33;;;2.83;;
13733;SDS011;43298;52.560;13.508;2023-07-20T02:33:20;3.30;;;2.75;;
13733;SDS011;43298;52.560;13.508;2023-07-20T02:35:46;3.50;;;3.20;;
13733;SDS011;43298;52.560;13.508;2023-07-20T02:38:12;3.53;;;3.22;;
13733;SDS011;43298;52.560;13.508;2023-07-20T02:40:38;3.55;;;3.25;;
13733;SDS011;43298;52.560;13.508;2023-07-20T02:43:05;3.10;;;2.80;;
13733;SDS011;43298;52.560;13.508;2023-07-20T02:45:31;4.05;;;3.65;;
13733;SDS011;43298;52.560;13.508;2023-07-20T02:47:57;3.95;;;3.45;;
13733;SDS011;43298;52.560;13.508;2023-07-20T02:50:23;5.20;;;3.72;;
13733;SDS011;43298;52.560;13.508;2023-07-20T02:52:49;3.58;;;2.70;;
13733;SDS011;43298;52.560;13.508;2023-07-20T02:55:15;4.93;;;3.90;;
13733;SDS011;43298;52.560;13.508;2023-07-20T02:57:42;4.50;;;3.22;;
13733;SDS011;43298;52.560;13.508;2023-07-20T03:00:08;4.28;;;3.63;;
13733;SDS011;43298;52.560;13.508;2023-07-20T03:02:34;3.65;;;3.33;;
13733;SDS011;43298;52.560;13.508;2023-07-20T03:05:01;4.50;;;3.67;;
13733;SDS011;43298;52.560;13.508;2023-07-20T03:07:30;2.88;;;2.58;;
13733;SDS011;43298;52.560;13.508;2023-07-20T03:09:56;4.88;;;3.17;;
13733;SDS011;43298;52.560;13.508;2023-07-20T03:12:23;3.53;;;3.22;;
13733;SDS011;43298;52.560;13.508;2023-07-20T03:14:49;5.93;;;4.15;;
13733;SDS011;43298;52.560;13.508;2023-07-20T03:17:15;4.35;;;3.92;;
13733;SDS011;43298;52.560;13.508;2023-07-20T03:19:41;4.13;;;3.28;;
13733;SDS011;43298;52.560;13.508;2023-07-20T03:22:08;3.60;;;3.05;;
13733;SDS011;43298;52.560;13.508;2023-07-20T03:24:34;4.28;;;3.70;;
13733;SDS011;43298;52.560;13.508;2023-07-20T03:27:00;5.57;;;4.15;;
13733;SDS011;43298;52.560;13.508;2023-07-20T03:29:26;4.15;;;3.40;;
13733;SDS011;43298;52.560;13.508;2023-07-20T03:31:52;4.05;;;3.65;;
13733;SDS011;43298;52.560;13.508;2023-07-20T03:34:18;5.32;;;4.35;;
13733;SDS011;43298;52.560;13.508;2023-07-20T03:36:44;4.75;;;3.88;;
13733;SDS011;43298;52.560;13.508;2023-07-20T03:39:11;4.60;;;3.38;;
13733;SDS011;43298;52.560;13.508;2023-07-20T03:41:37;4.75;;;4.25;;
13733;SDS011;43298;52.560;13.508;2023-07-20T03:44:03;5.28;;;4.05;;
13733;SDS011;43298;52.560;13.508;2023-07-20T03:46:30;6.10;;;4.07;;
13733;SDS011;43298;52.560;13.508;2023-07-20T03:48:56;6.47;;;4.15;;
13733;SDS011;43298;52.560;13.508;2023-07-20T03:51:22;9.45;;;4.90;;
13733;SDS011;43298;52.560;13.508;2023-07-20T03:53:49;5.50;;;3.15;;
13733;SDS011;43298;52.560;13.508;2023-07-20T03:56:15;4.97;;;3.75;;
13733;SDS011;43298;52.560;13.508;2023-07-20T03:58:41;8.60;;;4.22;;
13733;SDS011;43298;52.560;13.508;2023-07-20T04:01:07;4.72;;;4.03;;
13733;SDS011;43298;52.560;13.508;2023-07-20T04:03:34;7.30;;;4.45;;
13733;SDS011;43298;52.560;13.508;2023-07-20T04:06:01;5.57;;;3.95;;
13733;SDS011;43298;52.560;13.508;2023-07-20T04:08:27;9.20;;;4.60;;
13733;SDS011;43298;52.560;13.508;2023-07-20T04:10:53;7.80;;;4.60;;
13733;SDS011;43298;52.560;13.508;2023-07-20T04:13:20;7.60;;;4.32;;
13733;SDS011;43298;52.560;13.508;2023-07-20T04:15:47;8.55;;;4.45;;
13733;SDS011;43298;52.560;13.508;2023-07-20T04:18:13;8.73;;;4.80;;
13733;SDS011;43298;52.560;13.508;2023-07-20T04:20:39;8.13;;;5.22;;
13733;SDS011;43298;52.560;13.508;2023-07-20T04:23:05;6.68;;;5.13;;
13733;SDS011;43298;52.560;13.508;2023-07-20T04:25:32;4.63;;;3.80;;
13733;SDS011;43298;52.560;13.508;2023-07-20T04:28:04;6.40;;;4.10;;
13733;SDS011;43298;52.560;13.508;2023-07-20T04:30:36;4.07;;;3.67;;
13733;SDS011;43298;52.560;13.508;2023-07-20T04:33:04;6.28;;;4.78;;
13733;SDS011;43298;52.560;13.508;2023-07-20T04:38:15;4.45;;;4.05;;
13733;SDS011;43298;52.560;13.508;2023-07-20T04:40:43;4.45;;;3.78;;
13733;SDS011;43298;52.560;13.508;2023-07-20T04:43:10;4.00;;;3.60;;
13733;SDS011;43298;52.560;13.508;2023-07-20T04:45:37;5.03;;;4.28;;
13733;SDS011;43298;52.560;13.508;2023-07-20T04:48:04;6.22;;;3.83;;
13733;SDS011;43298;52.560;13.508;2023-07-20T04:50:33;3.50;;;3.10;;
13733;SDS011;43298;52.560;13.508;2023-07-20T04:52:59;5.85;;;3.63;;
13733;SDS011;43298;52.560;13.508;2023-07-20T04:55:27;5.00;;;3.67;;
13733;SDS011;43298;52.560;13.508;2023-07-20T04:57:53;3.88;;;3.45;;
13733;SDS011;43298;52.560;13.508;2023-07-20T05:00:19;5.10;;;4.05;;
13733;SDS011;43298;52.560;13.508;2023-07-20T05:02:46;3.75;;;3.45;;
13733;SDS011;43298;52.560;13.508;2023-07-20T05:05:14;4.60;;;3.88;;
13733;SDS011;43298;52.560;13.508;2023-07-20T05:07:40;5.78;;;4.25;;
13733;SDS011;43298;52.560;13.508;2023-07-20T05:10:06;6.00;;;3.95;;
13733;SDS011;43298;52.560;13.508;2023-07-20T05:12:33;4.03;;;3.63;;
13733;SDS011;43298;52.560;13.508;2023-07-20T05:14:59;4.75;;;3.95;;
13733;SDS011;43298;52.560;13.508;2023-07-20T05:17:25;6.22;;;3.38;;
13733;SDS011;43298;52.560;13.508;2023-07-20T05:19:51;3.33;;;3.03;;
13733;SDS011;43298;52.560;13.508;2023-07-20T05:22:17;4.28;;;3.25;;
13733;SDS011;43298;52.560;13.508;2023-07-20T05:24:43;2.75;;;2.45;;
13733;SDS011;43298;52.560;13.508;2023-07-20T05:27:09;4.97;;;3.60;;
13733;SDS011;43298;52.560;13.508;2023-07-20T05:29:35;5.30;;;2.95;;
13733;SDS011;43298;52.560;13.508;2023-07-20T05:32:02;4.53;;;2.63;;
13733;SDS011;43298;52.560;13.508;2023-07-20T05:34:28;3.35;;;3.05;;
13733;SDS011;43298;52.560;13.508;2023-07-20T05:36:55;2.83;;;2.15;;
13733;SDS011;43298;52.560;13.508;2023-07-20T05:39:21;4.90;;;2.88;;
13733;SDS011;43298;52.560;13.508;2023-07-20T05:41:47;3.40;;;2.72;;
13733;SDS011;43298;52.560;13.508;2023-07-20T05:44:13;5.00;;;3.60;;
13733;SDS011;43298;52.560;13.508;2023-07-20T05:46:39;3.10;;;2.53;;
13733;SDS011;43298;52.560;13.508;2023-07-20T05:49:05;3.38;;;3.08;;
13733;SDS011;43298;52.560;13.508;2023-07-20T05:51:31;2.72;;;2.45;;
13733;SDS011;43298;52.560;13.508;2023-07-20T05:53:58;3.80;;;2.28;;
13733;SDS011;43298;52.560;13.508;2023-07-20T05:56:24;4.20;;;3.00;;
13733;SDS011;43298;52.560;13.508;2023-07-20T05:58:50;6.43;;;2.95;;
13733;SDS011;43298;52.560;13.508;2023-07-20T06:01:16;3.50;;;2.70;;
13733;SDS011;43298;52.560;13.508;2023-07-20T06:03:44;2.53;;;2.33;;
13733;SDS011;43298;52.560;13.508;2023-07-20T06:06:10;3.33;;;3.03;;
13733;SDS011;43298;52.560;13.508;2023-07-20T06:08:37;3.92;;;3.17;;
13733;SDS011;43298;52.560;13.508;2023-07-20T06:11:03;2.42;;;1.98;;
13733;SDS011;43298;52.560;13.508;2023-07-20T06:13:29;3.17;;;2.05;;
13733;SDS011;43298;52.560;13.508;2023-07-20T06:15:56;7.65;;;2.33;;
13733;SDS011;43298;52.560;13.508;2023-07-20T06:18:22;2.10;;;1.90;;
13733;SDS011;43298;52.560;13.508;2023-07-20T06:20:49;2.20;;;2.00;;
13733;SDS011;43298;52.560;13.508;2023-07-20T06:23:16;3.60;;;2.22;;
13733;SDS011;43298;52.560;13.508;2023-07-20T06:25:43;5.32;;;2.28;;
13733;SDS011;43298;52.560;13.508;2023-07-20T06:28:10;2.05;;;1.85;;
13733;SDS011;43298;52.560;13.508;2023-07-20T06:30:36;2.42;;;2.17;;
13733;SDS011;43298;52.560;13.508;2023-07-20T06:33:02;4.32;;;2.13;;
13733;SDS011;43298;52.560;13.508;2023-07-20T06:35:28;1.90;;;1.45;;
13733;SDS011;43298;52.560;13.508;2023-07-20T06:37:55;1.60;;;1.50;;
13733;SDS011;43298;52.560;13.508;2023-07-20T06:40:21;1.70;;;1.60;;
13733;SDS011;43298;52.560;13.508;2023-07-20T06:42:47;1.55;;;1.45;;
13733;SDS011;43298;52.560;13.508;2023-07-20T06:45:13;1.42;;;1.33;;
13733;SDS011;43298;52.560;13.508;2023-07-20T06:47:40;3.65;;;1.50;;
13733;SDS011;43298;52.560;13.508;2023-07-20T06:50:06;3.80;;;1.48;;
13733;SDS011;43298;52.560;13.508;2023-07-20T06:52:33;1.33;;;1.23;;
13733;SDS011;43298;52.560;13.508;2023-07-20T06:55:00;1.90;;;1.65;;
13733;SDS011;43298;52.560;13.508;2023-07-20T06:57:26;1.48;;;1.35;;
13733;SDS011;43298;52.560;13.508;2023-07-20T06:59:52;1.52;;;1.25;;
13733;SDS011;43298;52.560;13.508;2023-07-20T07:02:18;1.30;;;1.20;;
13733;SDS011;43298;52.560;13.508;2023-07-20T07:04:44;2.95;;;1.17;;
13733;SDS011;43298;52.560;13.508;2023-07-20T07:07:13;1.42;;;1.00;;
13733;SDS011;43298;52.560;13.508;2023-07-20T07:09:40;1.90;;;1.48;;
13733;SDS011;43298;52.560;13.508;2023-07-20T07:12:06;1.20;;;1.10;;
13733;SDS011;43298;52.560;13.508;2023-07-20T07:14:33;0.90;;;0.90;;
13733;SDS011;43298;52.560;13.508;2023-07-20T07:16:59;3.13;;;0.82;;
13733;SDS011;43298;52.560;13.508;2023-07-20T07:19:26;1.23;;;1.13;;
13733;SDS011;43298;52.560;13.508;2023-07-20T07:21:52;0.80;;;0.73;;
13733;SDS011;43298;52.560;13.508;2023-07-20T07:24:18;1.15;;;0.98;;
13733;SDS011;43298;52.560;13.508;2023-07-20T07:26:45;1.10;;;1.00;;
13733;SDS011;43298;52.560;13.508;2023-07-20T07:29:11;3.38;;;0.93;;
13733;SDS011;43298;52.560;13.508;2023-07-20T07:31:37;1.00;;;0.90;;
13733;SDS011;43298;52.560;13.508;2023-07-20T07:34:03;1.30;;;1.20;;
13733;SDS011;43298;52.560;13.508;2023-07-20T07:36:30;3.00;;;1.00;;
13733;SDS011;43298;52.560;13.508;2023-07-20T07:38:57;1.27;;;0.68;;
13733;SDS011;43298;52.560;13.508;2023-07-20T07:41:23;1.02;;;0.70;;
13733;SDS011;43298;52.560;13.508;2023-07-20T07:43:49;0.60;;;0.60;;
13733;SDS011;43298;52.560;13.508;2023-07-20T07:46:15;2.35;;;0.68;;
13733;SDS011;43298;52.560;13.508;2023-07-20T07:48:42;0.50;;;0.50;;
13733;SDS011;43298;52.560;13.508;2023-07-20T07:51:08;0.70;;;0.70;;
13733;SDS011;43298;52.560;13.508;2023-07-20T07:53:34;0.60;;;0.60;;
13733;SDS011;43298;52.560;13.508;2023-07-20T07:56:02;0.52;;;0.50;;
13733;SDS011;43298;52.560;13.508;2023-07-20T07:58:28;0.55;;;0.55;;
13733;SDS011;43298;52.560;13.508;2023-07-20T08:00:54;1.05;;;0.80;;
13733;SDS011;43298;52.560;13.508;2023-07-20T08:03:21;0.80;;;0.77;;
13733;SDS011;43298;52.560;13.508;2023-07-20T08:05:49;2.03;;;0.80;;
13733;SDS011;43298;52.560;13.508;2023-07-20T08:08:15;0.50;;;0.50;;
13733;SDS011;43298;52.560;13.508;2023-07-20T08:10:42;1.80;;;1.00;;
13733;SDS011;43298;52.560;13.508;2023-07-20T08:13:08;0.73;;;0.73;;
13733;SDS011;43298;52.560;13.508;2023-07-20T08:15:34;0.70;;;0.70;;
13733;SDS011;43298;52.560;13.508;2023-07-20T08:18:00;0.90;;;0.75;;
13733;SDS011;43298;52.560;13.508;2023-07-20T08:20:26;0.47;;;0.40;;
13733;SDS011;43298;52.560;13.508;2023-07-20T08:22:54;0.68;;;0.57;;
13733;SDS011;43298;52.560;13.508;2023-07-20T08:25:21;0.98;;;0.60;;
13733;SDS011;43298;52.560;13.508;2023-07-20T08:27:47;1.67;;;0.75;;
13733;SDS011;43298;52.560;13.508;2023-07-20T08:30:13;0.50;;;0.50;;
13733;SDS011;43298;52.560;13.508;2023-07-20T08:32:39;1.05;;;0.70;;
13733;SDS011;43298;52.560;13.508;2023-07-20T08:35:05;0.60;;;0.60;;
13733;SDS011;43298;52.560;13.508;2023-07-20T08:37:32;0.85;;;0.43;;
13733;SDS011;43298;52.560;13.508;2023-07-20T08:39:58;0.60;;;0.60;;
13733;SDS011;43298;52.560;13.508;2023-07-20T08:42:24;0.55;;;0.40;;
13733;SDS011;43298;52.560;13.508;2023-07-20T08:44:52;0.60;;;0.60;;
13733;SDS011;43298;52.560;13.508;2023-07-20T08:47:20;0.43;;;0.43;;
13733;SDS011;43298;52.560;13.508;2023-07-20T08:49:50;0.30;;;0.30;;
13733;SDS011;43298;52.560;13.508;2023-07-20T08:52:17;0.40;;;0.40;;
13733;SDS011;43298;52.560;13.508;2023-07-20T08:54:43;0.38;;;0.38;;
13733;SDS011;43298;52.560;13.508;2023-07-20T08:57:09;0.43;;;0.43;;
13733;SDS011;43298;52.560;13.508;2023-07-20T08:59:39;0.30;;;0.30;;
13733;SDS011;43298;52.560;13.508;2023-07-20T09:02:06;0.60;;;0.60;;
13733;SDS011;43298;52.560;13.508;2023-07-20T09:04:36;2.50;;;0.35;;
13733;SDS011;43298;52.560;13.508;2023-07-20T09:07:02;7.78;;;0.28;;
13733;SDS011;43298;52.560;13.508;2023-07-20T09:09:29;0.85;;;0.55;;
13733;SDS011;43298;52.560;13.508;2023-07-20T09:11:55;0.38;;;0.38;;
13733;SDS011;43298;52.560;13.508;2023-07-20T09:14:21;0.30;;;0.30;;
13733;SDS011;43298;52.560;13.508;2023-07-20T09:16:50;0.30;;;0.22;;
13733;SDS011;43298;52.560;13.508;2023-07-20T09:19:20;0.55;;;0.55;;
13733;SDS011;43298;52.560;13.508;2023-07-20T09:21:47;0.45;;;0.40;;
13733;SDS011;43298;52.560;13.508;2023-07-20T09:24:15;0.38;;;0.30;;
13733;SDS011;43298;52.560;13.508;2023-07-20T09:26:45;0.38;;;0.38;;
13733;SDS011;43298;52.560;13.508;2023-07-20T09:29:19;0.40;;;0.40;;
13733;SDS011;43298;52.560;13.508;2023-07-20T09:31:58;0.40;;;0.28;;
13733;SDS011;43298;52.560;13.508;2023-07-20T09:34:26;0.40;;;0.40;;
13733;SDS011;43298;52.560;13.508;2023-07-20T09:36:53;0.20;;;0.20;;
13733;SDS011;43298;52.560;13.508;2023-07-20T09:39:20;0.45;;;0.45;;
13733;SDS011;43298;52.560;13.508;2023-07-20T09:41:46;0.30;;;0.30;;
13733;SDS011;43298;52.560;13.508;2023-07-20T09:44:13;0.52;;;0.40;;
13733;SDS011;43298;52.560;13.508;2023-07-20T09:49:14;0.20;;;0.20;;
13733;SDS011;43298;52.560;13.508;2023-07-20T09:51:40;0.47;;;0.47;;
13733;SDS011;43298;52.560;13.508;2023-07-20T09:54:07;0.73;;;0.55;;
13733;SDS011;43298;52.560;13.508;2023-07-20T09:56:33;0.63;;;0.38;;
13733;SDS011;43298;52.560;13.508;2023-07-20T09:59:01;1.25;;;0.55;;
13733;SDS011;43298;52.560;13.508;2023-07-20T10:01:27;2.38;;;0.52;;
13733;SDS011;43298;52.560;13.508;2023-07-20T10:03:55;0.63;;;0.50;;
13733;SDS011;43298;52.560;13.508;2023-07-20T10:06:26;0.30;;;0.30;;
13733;SDS011;43298;52.560;13.508;2023-07-20T10:08:55;0.70;;;0.60;;
13733;SDS011;43298;52.560;13.508;2023-07-20T10:11:32;0.93;;;0.50;;
13733;SDS011;43298;52.560;13.508;2023-07-20T10:14:04;0.68;;;0.68;;
13733;SDS011;43298;52.560;13.508;2023-07-20T10:16:35;0.50;;;0.47;;
13733;SDS011;43298;52.560;13.508;2023-07-20T10:19:11;0.43;;;0.43;;
13733;SDS011;43298;52.560;13.508;2023-07-20T10:21:51;0.75;;;0.70;;
13733;SDS011;43298;52.560;13.508;2023-07-20T10:24:25;0.32;;;0.32;;
13733;SDS011;43298;52.560;13.508;2023-07-20T10:26:53;1.70;;;0.50;;
13733;SDS011;43298;52.560;13.508;2023-07-20T10:29:20;0.57;;;0.52;;
13733;SDS011;43298;52.560;13.508;2023-07-20T10:31:48;0.70;;;0.60;;
13733;SDS011;43298;52.560;13.508;2023-07-20T10:34:14;0.40;;;0.40;;
13733;SDS011;43298;52.560;13.508;2023-07-20T10:36:44;0.38;;;0.38;;
13733;SDS011;43298;52.560;13.508;2023-07-20T10:42:12;1.58;;;0.35;;
13733;SDS011;43298;52.560;13.508;2023-07-20T10:44:38;0.40;;;0.40;;
13733;SDS011;43298;52.560;13.508;2023-07-20T10:47:08;0.57;;;0.50;;
13733;SDS011;43298;52.560;13.508;2023-07-20T10:49:57;0.43;;;0.40;;
13733;SDS011;43298;52.560;13.508;2023-07-20T10:52:25;0.30;;;0.30;;
13733;SDS011;43298;52.560;13.508;2023-07-20T10:54:51;0.45;;;0.30;;
13733;SDS011;43298;52.560;13.508;2023-07-20T10:57:24;1.80;;;0.52;;
13733;SDS011;43298;52.560;13.508;2023-07-20T11:00:11;1.77;;;0.50;;
13733;SDS011;43298;52.560;13.508;2023-07-20T11:02:48;0.40;;;0.40;;
13733;SDS011;43298;52.560;13.508;2023-07-20T11:05:36;1.35;;;0.43;;
13733;SDS011;43298;52.560;13.508;2023-07-20T11:08:10;0.70;;;0.60;;
13733;SDS011;43298;52.560;13.508;2023-07-20T11:10:37;0.47;;;0.47;;
13733;SDS011;43298;52.560;13.508;2023-07-20T11:13:17;0.60;;;0.40;;
13733;SDS011;43298;52.560;13.508;2023-07-20T11:18:25;0.40;;;0.40;;
13733;SDS011;43298;52.560;13.508;2023-07-20T11:20:51;0.40;;;0.40;;
13733;SDS011;43298;52.560;13.508;2023-07-20T11:23:21;0.35;;;0.35;;
13733;SDS011;43298;52.560;13.508;2023-07-20T11:25:48;0.28;;;0.28;;
13733;SDS011;43298;52.560;13.508;2023-07-20T11:28:15;0.70;;;0.38;;
13733;SDS011;43298;52.560;13.508;2023-07-20T11:30:41;0.35;;;0.35;;
13733;SDS011;43298;52.560;13.508;2023-07-20T11:33:09;1.00;;;0.50;;
13733;SDS011;43298;52.560;13.508;2023-07-20T11:35:42;0.25;;;0.25;;
13733;SDS011;43298;52.560;13.508;2023-07-20T11:38:09;0.20;;;0.20;;
13733;SDS011;43298;52.560;13.508;2023-07-20T11:40:36;0.52;;;0.50;;
13733;SDS011;43298;52.560;13.508;2023-07-20T11:43:12;0.30;;;0.30;;
13733;SDS011;43298;52.560;13.508;2023-07-20T11:45:39;0.30;;;0.30;;
13733;SDS011;43298;52.560;13.508;2023-07-20T11:48:05;1.30;;;0.45;;
13733;SDS011;43298;52.560;13.508;2023-07-20T11:50:31;0.30;;;0.30;;
13733;SDS011;43298;52.560;13.508;2023-07-20T11:52:57;0.45;;;0.40;;
13733;SDS011;43298;52.560;13.508;2023-07-20T11:55:23;0.52;;;0.40;;
13733;SDS011;43298;52.560;13.508;2023-07-20T11:58:04;0.60;;;0.30;;
13733;SDS011;43298;52.560;13.508;2023-07-20T12:00:32;0.85;;;0.30;;
13733;SDS011;43298;52.560;13.508;2023-07-20T12:02:59;0.25;;;0.25;;
13733;SDS011;43298;52.560;13.508;2023-07-20T12:05:26;0.13;;;0.13;;
13733;SDS011;43298;52.560;13.508;2023-07-20T12:07:52;0.30;;;0.30;;
13733;SDS011;43298;52.560;13.508;2023-07-20T12:10:25;0.30;;;0.30;;
13733;SDS011;43298;52.560;13.508;2023-07-20T12:12:53;0.38;;;0.38;;
13733;SDS011;43298;52.560;13.508;2023-07-20T12:17:55;0.45;;;0.40;;
13733;SDS011;43298;52.560;13.508;2023-07-20T12:20:30;0.15;;;0.15;;
13733;SDS011;43298;52.560;13.508;2023-07-20T12:23:01;0.32;;;0.30;;
13733;SDS011;43298;52.560;13.508;2023-07-20T12:25:39;0.40;;;0.35;;
13733;SDS011;43298;52.560;13.508;2023-07-20T12:28:17;0.25;;;0.25;;
13733;SDS011;43298;52.560;13.508;2023-07-20T12:30:45;0.30;;;0.30;;
13733;SDS011;43298;52.560;13.508;2023-07-20T12:33:13;0.40;;;0.32;;
13733;SDS011;43298;52.560;13.508;2023-07-20T12:35:42;0.17;;;0.17;;
13733;SDS011;43298;52.560;13.508;2023-07-20T12:38:08;1.27;;;0.40;;
13733;SDS011;43298;52.560;13.508;2023-07-20T12:40:34;0.52;;;0.30;;
13733;SDS011;43298;52.560;13.508;2023-07-20T12:43:01;0.77;;;0.38;;
13733;SDS011;43298;52.560;13.508;2023-07-20T12:45:27;0.20;;;0.20;;
13733;SDS011;43298;52.560;13.508;2023-07-20T12:47:53;0.75;;;0.40;;
13733;SDS011;43298;52.560;13.508;2023-07-20T12:50:18;0.30;;;0.30;;
13733;SDS011;43298;52.560;13.508;2023-07-20T12:52:44;0.38;;;0.38;;
13733;SDS011;43298;52.560;13.508;2023-07-20T12:55:10;0.30;;;0.30;;
13733;SDS011;43298;52.560;13.508;2023-07-20T12:57:36;0.40;;;0.40;;
13733;SDS011;43298;52.560;13.508;2023-07-20T13:00:03;0.40;;;0.40;;
13733;SDS011;43298;52.560;13.508;2023-07-20T13:02:33;0.30;;;0.30;;
13733;SDS011;43298;52.560;13.508;2023-07-20T13:04:59;1.17;;;0.63;;
13733;SDS011;43298;52.560;13.508;2023-07-20T13:07:31;0.82;;;0.30;;
13733;SDS011;43298;52.560;13.508;2023-07-20T13:10:04;0.40;;;0.40;;
13733;SDS011;43298;52.560;13.508;2023-07-20T13:12:32;0.30;;;0.30;;
13733;SDS011;43298;52.560;13.508;2023-07-20T13:15:01;0.38;;;0.32;;
13733;SDS011;43298;52.560;13.508;2023-07-20T13:17:30;0.57;;;0.25;;
13733;SDS011;43298;52.560;13.508;2023-07-20T13:20:00;0.20;;;0.20;;
13733;SDS011;43298;52.560;13.508;2023-07-20T13:22:29;0.80;;;0.30;;
13733;SDS011;43298;52.560;13.508;2023-07-20T13:24:56;0.43;;;0.40;;
13733;SDS011;43298;52.560;13.508;2023-07-20T13:27:21;0.35;;;0.35;;
13733;SDS011;43298;52.560;13.508;2023-07-20T13:29:47;0.30;;;0.30;;
13733;SDS011;43298;52.560;13.508;2023-07-20T13:32:13;0.40;;;0.30;;
13733;SDS011;43298;52.560;13.508;2023-07-20T13:34:40;0.20;;;0.20;;
13733;SDS011;43298;52.560;13.508;2023-07-20T13:37:08;0.38;;;0.38;;
13733;SDS011;43298;52.560;13.508;2023-07-20T13:39:34;0.30;;;0.30;;
13733;SDS011;43298;52.560;13.508;2023-07-20T13:42:00;0.10;;;0.10;;
13733;SDS011;43298;52.560;13.508;2023-07-20T13:44:30;0.88;;;0.20;;
13733;SDS011;43298;52.560;13.508;2023-07-20T13:46:57;5.60;;;0.35;;
13733;SDS011;43298;52.560;13.508;2023-07-20T13:49:23;0.28;;;0.20;;
13733;SDS011;43298;52.560;13.508;2023-07-20T13:51:49;0.60;;;0.38;;
13733;SDS011;43298;52.560;13.508;2023-07-20T13:54:15;0.50;;;0.50;;
13733;SDS011;43298;52.560;13.508;2023-07-20T13:56:41;0.52;;;0.43;;
13733;SDS011;43298;52.560;13.508;2023-07-20T13:59:07;0.22;;;0.22;;
13733;SDS011;43298;52.560;13.508;2023-07-20T14:01:32;0.82;;;0.45;;
13733;SDS011;43298;52.560;13.508;2023-07-20T14:04:00;0.32;;;0.32;;
13733;SDS011;43298;52.560;13.508;2023-07-20T14:06:30;0.55;;;0.40;;
13733;SDS011;43298;52.560;13.508;2023-07-20T14:08:58;0.35;;;0.35;;
13733;SDS011;43298;52.560;13.508;2023-07-20T14:11:25;0.40;;;0.40;;
13733;SDS011;43298;52.560;13.508;2023-07-20T14:13:51;0.40;;;0.38;;
13733;SDS011;43298;52.560;13.508;2023-07-20T14:16:18;0.30;;;0.20;;
13733;SDS011;43298;52.560;13.508;2023-07-20T14:18:47;0.35;;;0.30;;
13733;SDS011;43298;52.560;13.508;2023-07-20T14:21:15;0.52;;;0.43;;
13733;SDS011;43298;52.560;13.508;2023-07-20T14:23:45;1.27;;;0.50;;
13733;SDS011;43298;52.560;13.508;2023-07-20T14:26:12;0.30;;;0.30;;
13733;SDS011;43298;52.560;13.508;2023-07-20T14:28:38;0.35;;;0.35;;
13733;SDS011;43298;52.560;13.508;2023-07-20T14:31:04;0.57;;;0.47;;
13733;SDS011;43298;52.560;13.508;2023-07-20T14:33:30;0.82;;;0.30;;
13733;SDS011;43298;52.560;13.508;2023-07-20T14:35:56;0.38;;;0.30;;
13733;SDS011;43298;52.560;13.508;2023-07-20T14:38:22;1.33;;;0.63;;
13733;SDS011;43298;52.560;13.508;2023-07-20T14:40:48;1.08;;;0.35;;
13733;SDS011;43298;52.560;13.508;2023-07-20T14:43:14;0.68;;;0.50;;
13733;SDS011;43298;52.560;13.508;2023-07-20T14:45:40;0.50;;;0.50;;
13733;SDS011;43298;52.560;13.508;2023-07-20T14:48:06;0.70;;;0.40;;
13733;SDS011;43298;52.560;13.508;2023-07-20T14:50:33;1.85;;;0.77;;
13733;SDS011;43298;52.560;13.508;2023-07-20T14:52:59;0.50;;;0.50;;